Wetterdaten: Woche 18.02.13 - 24.02.13 (KW8)
Datum Zeit Temp. A. Feuchte A. Luftdruck Regen Wind Richtung Taupunkt Windchill Windben
18.02.2013 00:00 -0,6 C 85 % 1022,5 hPa 0,0 l/m 0,0 km/h N -2,8 C -0,6 C 0,0 km/h
18.02.2013 01:00 -0,4 C 85 % 1022,2 hPa 0,0 l/m 0,0 km/h N -2,7 C -0,4 C 0,4 km/h
18.02.2013 02:00 -0,3 C 85 % 1021,8 hPa 0,0 l/m 0,1 km/h N -2,6 C -0,3 C 1,2 km/h
18.02.2013 03:00 -0,4 C 84 % 1021,5 hPa 0,0 l/m 0,0 km/h N -2,8 C -0,4 C 0,0 km/h
18.02.2013 04:00 -0,6 C 85 % 1021,4 hPa 0,0 l/m 0,0 km/h N -2,9 C -0,6 C 0,0 km/h
18.02.2013 05:00 -0,7 C 85 % 1021,3 hPa 0,0 l/m 0,1 km/h N -2,9 C -0,7 C 0,8 km/h
18.02.2013 06:00 -1,6 C 85 % 1021,5 hPa 0,0 l/m 0,0 km/h N -3,8 C -1,6 C 0,0 km/h
18.02.2013 07:00 -2,5 C 85 % 1021,8 hPa 0,0 l/m 0,0 km/h N -4,7 C -2,5 C 0,0 km/h
18.02.2013 08:00 -1,9 C 85 % 1021,9 hPa 0,0 l/m 0,0 km/h N -4,0 C -1,9 C 0,8 km/h
18.02.2013 09:00 0,6 C 85 % 1021,8 hPa 0,0 l/m 1,4 km/h N -1,7 C 0,6 C 4,8 km/h
18.02.2013 10:00 1,9 C 78 % 1021,7 hPa 0,0 l/m 1,1 km/h N -1,5 C 1,9 C 4,8 km/h
18.02.2013 11:00 3,4 C 71 % 1021,5 hPa 0,0 l/m 0,8 km/h N -1,4 C 3,4 C 5,2 km/h
18.02.2013 12:00 4,1 C 65 % 1021,2 hPa 0,0 l/m 0,8 km/h N -2,0 C 4,1 C 5,6 km/h
18.02.2013 13:00 4,1 C 63 % 1020,7 hPa 0,0 l/m 0,9 km/h N -2,3 C 4,1 C 5,6 km/h
18.02.2013 14:00 3,9 C 62 % 1020,4 hPa 0,0 l/m 0,6 km/h N -2,8 C 3,9 C 4,8 km/h
18.02.2013 15:00 3,7 C 64 % 1020,1 hPa 0,0 l/m 0,4 km/h N -2,5 C 3,7 C 4,0 km/h
18.02.2013 16:00 3,2 C 65 % 1020,0 hPa 0,0 l/m 0,1 km/h N -2,8 C 3,2 C 3,2 km/h
18.02.2013 17:00 2,4 C 69 % 1020,1 hPa 0,0 l/m 0,0 km/h N -2,8 C 2,4 C 1,2 km/h
18.02.2013 18:00 1,8 C 72 % 1020,5 hPa 0,0 l/m 0,0 km/h N -2,7 C 1,8 C 0,4 km/h
18.02.2013 19:00 1,4 C 74 % 1020,3 hPa 0,0 l/m 0,0 km/h N -2,8 C 1,4 C 0,0 km/h
18.02.2013 20:00 0,9 C 76 % 1020,1 hPa 0,0 l/m 0,0 km/h N -2,9 C 0,9 C 0,4 km/h
18.02.2013 21:00 0,8 C 77 % 1020,0 hPa 0,0 l/m 0,0 km/h N -2,7 C 0,8 C 0,0 km/h
18.02.2013 22:00 0,6 C 79 % 1019,9 hPa 0,0 l/m 0,0 km/h N -2,7 C 0,6 C 0,0 km/h
18.02.2013 23:00 0,6 C 80 % 1019,6 hPa 0,0 l/m 0,1 km/h N -2,5 C 0,6 C 2,0 km/h
19.02.2013 00:00 0,6 C 80 % 1019,2 hPa 0,0 l/m 0,0 km/h N -2,4 C 0,6 C 0,8 km/h
19.02.2013 01:00 0,6 C 80 % 1018,8 hPa 0,0 l/m 0,0 km/h N -2,5 C 0,6 C 0,4 km/h
19.02.2013 02:00 0,4 C 80 % 1018,4 hPa 0,0 l/m 0,1 km/h N -2,6 C 0,4 C 1,2 km/h
19.02.2013 03:00 0,7 C 80 % 1017,6 hPa 0,0 l/m 0,1 km/h N -2,5 C 0,7 C 1,2 km/h
19.02.2013 04:00 0,8 C 79 % 1017,1 hPa 0,0 l/m 0,1 km/h N -2,5 C 0,8 C 2,0 km/h
19.02.2013 05:00 0,7 C 80 % 1016,8 hPa 0,0 l/m 0,1 km/h N -2,4 C 0,7 C 2,4 km/h
19.02.2013 06:00 0,8 C 80 % 1016,3 hPa 0,0 l/m 0,4 km/h N -2,3 C 0,8 C 4,0 km/h
19.02.2013 07:00 1,1 C 77 % 1016,1 hPa 0,0 l/m 0,2 km/h N -2,5 C 1,1 C 2,8 km/h
19.02.2013 08:00 1,6 C 74 % 1015,7 hPa 0,0 l/m 0,3 km/h N -2,5 C 1,6 C 4,0 km/h
19.02.2013 09:00 2,5 C 66 % 1015,1 hPa 0,0 l/m 6,1 km/h N -3,3 C 1,7 C 17,7 km/h
19.02.2013 10:00 3,4 C 59 % 1014,5 hPa 0,0 l/m 7,7 km/h N -3,8 C 2,2 C 19,7 km/h
19.02.2013 11:00 3,7 C 62 % 1014,0 hPa 0,0 l/m 8,2 km/h N -3,0 C 2,0 C 24,9 km/h
19.02.2013 12:00 3,9 C 64 % 1013,1 hPa 0,0 l/m 7,1 km/h N -2,2 C 2,8 C 22,9 km/h
19.02.2013 13:00 3,3 C 70 % 1012,5 hPa 0,0 l/m 6,4 km/h N -1,6 C 3,1 C 17,7 km/h
19.02.2013 14:00 3,0 C 74 % 1011,9 hPa 0,3 l/m 6,4 km/h N -1,2 C 2,8 C 17,3 km/h
19.02.2013 15:00 2,3 C 80 % 1011,2 hPa 0,0 l/m 6,9 km/h N -0,7 C 1,7 C 21,7 km/h
19.02.2013 16:00 2,3 C 81 % 1010,8 hPa 0,0 l/m 6,9 km/h N -0,7 C 1,8 C 18,5 km/h
19.02.2013 17:00 1,8 C 83 % 1010,6 hPa 0,5 l/m 5,6 km/h N -0,8 C 1,8 C 18,1 km/h
19.02.2013 18:00 1,6 C 84 % 1010,9 hPa 0,5 l/m 6,8 km/h N -0,8 C 1,0 C 20,1 km/h
19.02.2013 19:00 1,9 C 82 % 1010,7 hPa 0,0 l/m 11,0 km/h N -0,9 C -2,0 C 27,0 km/h
19.02.2013 20:00 2,3 C 79 % 1010,8 hPa 0,0 l/m 9,6 km/h N -1,1 C -0,6 C 27,0 km/h
19.02.2013 21:00 2,3 C 77 % 1011,2 hPa 0,0 l/m 7,2 km/h N -1,3 C 1,5 C 19,7 km/h
19.02.2013 22:00 1,8 C 82 % 1011,6 hPa 0,3 l/m 7,3 km/h N -0,9 C 0,9 C 20,1 km/h
19.02.2013 23:00 1,6 C 83 % 1012,0 hPa 0,0 l/m 8,1 km/h N -1,0 C -0,0 C 21,3 km/h
20.02.2013 00:00 1,0 C 85 % 1012,6 hPa 0,3 l/m 5,4 km/h N -1,3 C 1,0 C 15,3 km/h
20.02.2013 01:00 0,9 C 81 % 1012,9 hPa 0,0 l/m 7,0 km/h N -2,1 C 0,1 C 18,1 km/h
20.02.2013 02:00 0,9 C 78 % 1013,2 hPa 0,0 l/m 4,8 km/h N -2,5 C 0,9 C 12,5 km/h
20.02.2013 03:00 0,7 C 75 % 1013,7 hPa 0,0 l/m 6,4 km/h N -3,3 C 0,1 C 16,1 km/h
20.02.2013 04:00 0,6 C 75 % 1014,2 hPa 0,0 l/m 5,0 km/h N -3,4 C 0,4 C 12,5 km/h
20.02.2013 05:00 0,4 C 74 % 1014,5 hPa 0,0 l/m 5,4 km/h N -3,8 C -0,1 C 15,7 km/h
20.02.2013 06:00 0,3 C 73 % 1014,8 hPa 0,0 l/m 3,7 km/h N -4,0 C 0,3 C 11,7 km/h
20.02.2013 07:00 0,3 C 71 % 1015,3 hPa 0,0 l/m 7,8 km/h N -4,4 C -1,1 C 20,9 km/h
20.02.2013 08:00 0,5 C 70 % 1015,5 hPa 0,0 l/m 9,6 km/h N -4,4 C -2,4 C 22,1 km/h
20.02.2013 09:00 1,0 C 69 % 1016,0 hPa 0,0 l/m 11,0 km/h N -4,0 C -3,1 C 23,3 km/h
20.02.2013 10:00 0,7 C 77 % 1016,7 hPa 0,0 l/m 8,0 km/h N -3,0 C -0,9 C 19,7 km/h
20.02.2013 11:00 1,2 C 74 % 1017,0 hPa 0,5 l/m 8,5 km/h N -3,0 C -0,7 C 20,5 km/h
20.02.2013 12:00 1,4 C 74 % 1017,0 hPa 0,0 l/m 5,5 km/h N -2,8 C 0,8 C 14,1 km/h
20.02.2013 13:00 0,6 C 78 % 1017,1 hPa 0,0 l/m 5,7 km/h N -2,9 C -0,1 C 15,7 km/h
20.02.2013 14:00 -0,2 C 82 % 1017,3 hPa 0,0 l/m 4,6 km/h N -2,9 C -0,2 C 14,5 km/h
20.02.2013 15:00 0,1 C 79 % 1017,3 hPa 0,0 l/m 4,1 km/h N -3,2 C 0,1 C 11,7 km/h
20.02.2013 16:00 0,3 C 73 % 1017,3 hPa 0,0 l/m 3,2 km/h N -3,9 C 0,3 C 12,5 km/h
20.02.2013 17:00 0,2 C 75 % 1018,0 hPa 0,0 l/m 6,9 km/h N -3,6 C -0,8 C 16,1 km/h
20.02.2013 18:00 -0,3 C 77 % 1018,7 hPa 0,0 l/m 5,6 km/h N -3,9 C -0,3 C 13,7 km/h
20.02.2013 19:00 -0,8 C 77 % 1019,1 hPa 0,0 l/m 3,3 km/h N -4,3 C -0,8 C 10,5 km/h
20.02.2013 20:00 -1,1 C 75 % 1019,4 hPa 0,0 l/m 4,6 km/h N -5,1 C -1,1 C 10,1 km/h
20.02.2013 21:00 -1,2 C 72 % 1019,6 hPa 0,0 l/m 5,5 km/h N -5,6 C -1,2 C 12,9 km/h
20.02.2013 22:00 -1,6 C 72 % 1019,9 hPa 0,0 l/m 3,5 km/h N -6,0 C -1,6 C 10,1 km/h
20.02.2013 23:00 -2,0 C 73 % 1020,0 hPa 0,0 l/m 2,1 km/h N -6,1 C -2,0 C 8,1 km/h
21.02.2013 00:00 -2,9 C 76 % 1020,0 hPa 0,0 l/m 0,3 km/h N -6,5 C -2,9 C 3,2 km/h
21.02.2013 01:00 -3,6 C 78 % 1020,1 hPa 0,0 l/m 0,1 km/h N -6,9 C -3,6 C 2,0 km/h
21.02.2013 02:00 -4,2 C 80 % 1020,1 hPa 0,0 l/m 0,6 km/h N -7,2 C -4,2 C 3,6 km/h
21.02.2013 03:00 -3,7 C 79 % 1019,8 hPa 0,0 l/m 1,0 km/h N -6,8 C -3,7 C 4,8 km/h
21.02.2013 04:00 -4,3 C 80 % 1019,8 hPa 0,0 l/m 0,1 km/h N -7,2 C -4,3 C 1,2 km/h
21.02.2013 05:00 -3,4 C 79 % 1019,8 hPa 0,0 l/m 3,4 km/h N -6,5 C -3,4 C 9,3 km/h
21.02.2013 06:00 -2,6 C 75 % 1019,6 hPa 0,0 l/m 4,2 km/h N -6,5 C -2,6 C 10,1 km/h
21.02.2013 07:00 -2,7 C 74 % 1019,7 hPa 0,0 l/m 4,1 km/h N -6,7 C -2,7 C 9,6 km/h
21.02.2013 08:00 -2,3 C 72 % 1019,8 hPa 0,0 l/m 4,0 km/h N -6,7 C -2,3 C 8,9 km/h
21.02.2013 09:00 -1,6 C 70 % 1020,0 hPa 0,0 l/m 5,8 km/h N -6,4 C -1,7 C 14,1 km/h
21.02.2013 10:00 -0,8 C 68 % 1019,9 hPa 0,0 l/m 3,8 km/h N -6,0 C -0,8 C 10,9 km/h
21.02.2013 11:00 -0,3 C 65 % 1019,8 hPa 0,0 l/m 3,6 km/h N -6,2 C -0,3 C 9,3 km/h
21.02.2013 12:00 -0,4 C 66 % 1019,3 hPa 0,0 l/m 2,8 km/h N -5,9 C -0,4 C 7,2 km/h
21.02.2013 13:00 -0,5 C 62 % 1018,8 hPa 0,0 l/m 3,1 km/h N -6,9 C -0,5 C 9,3 km/h
21.02.2013 14:00 -0,6 C 63 % 1018,4 hPa 0,0 l/m 3,5 km/h N -6,8 C -0,6 C 10,5 km/h
21.02.2013 15:00 -0,9 C 66 % 1018,2 hPa 0,0 l/m 3,7 km/h N -6,4 C -0,9 C 9,7 km/h
21.02.2013 16:00 -1,2 C 65 % 1018,1 hPa 0,0 l/m 4,0 km/h N -6,8 C -1,2 C 11,3 km/h
21.02.2013 17:00 -1,9 C 64 % 1018,0 hPa 0,0 l/m 2,9 km/h N -7,7 C -1,9 C 8,8 km/h
21.02.2013 18:00 -2,5 C 65 % 1018,1 hPa 0,0 l/m 0,9 km/h N -8,3 C -2,5 C 5,6 km/h
21.02.2013 19:00 -3,0 C 68 % 1018,0 hPa 0,0 l/m 0,3 km/h N -8,1 C -3,0 C 2,8 km/h
21.02.2013 20:00 -3,4 C 71 % 1018,0 hPa 0,0 l/m 0,1 km/h N -8,0 C -3,4 C 3,2 km/h
21.02.2013 21:00 -3,2 C 69 % 1017,8 hPa 0,0 l/m 2,4 km/h N -8,0 C -3,2 C 7,2 km/h
21.02.2013 22:00 -3,0 C 68 % 1017,4 hPa 0,0 l/m 3,5 km/h N -8,2 C -3,0 C 10,1 km/h
21.02.2013 23:00 -3,3 C 68 % 1016,9 hPa 0,0 l/m 3,0 km/h N -8,3 C -3,3 C 8,9 km/h
22.02.2013 00:00 -3,6 C 71 % 1016,6 hPa 0,0 l/m 4,3 km/h N -8,2 C -3,6 C 12,1 km/h
22.02.2013 01:00 -4,2 C 72 % 1016,2 hPa 0,0 l/m 4,7 km/h N -8,4 C -4,2 C 12,1 km/h
22.02.2013 02:00 -4,7 C 74 % 1015,8 hPa 0,0 l/m 4,7 km/h N -8,6 C -4,7 C 10,1 km/h
22.02.2013 03:00 -5,2 C 79 % 1015,0 hPa 0,0 l/m 4,3 km/h N -8,3 C -5,2 C 9,3 km/h
22.02.2013 04:00 -5,5 C 81 % 1014,2 hPa 0,0 l/m 4,5 km/h N -8,2 C -5,5 C 10,9 km/h
22.02.2013 05:00 -5,7 C 84 % 1013,8 hPa 0,0 l/m 4,2 km/h N -8,0 C -5,7 C 8,9 km/h
22.02.2013 06:00 -5,8 C 85 % 1013,6 hPa 0,0 l/m 3,0 km/h N -7,9 C -5,8 C 7,6 km/h
22.02.2013 07:00 -5,8 C 86 % 1013,5 hPa 0,0 l/m 3,7 km/h N -7,7 C -5,8 C 8,9 km/h
22.02.2013 08:00 -5,4 C 86 % 1013,3 hPa 0,0 l/m 5,0 km/h N -7,4 C -5,4 C 11,3 km/h
22.02.2013 09:00 -4,8 C 86 % 1012,6 hPa 0,0 l/m 5,0 km/h N -6,7 C -4,8 C 12,1 km/h
22.02.2013 10:00 -3,9 C 86 % 1012,2 hPa 0,0 l/m 6,2 km/h N -6,0 C -4,1 C 14,5 km/h
22.02.2013 11:00 -3,4 C 83 % 1011,7 hPa 0,0 l/m 5,9 km/h N -5,8 C -3,5 C 14,5 km/h
22.02.2013 12:00 -3,1 C 82 % 1011,0 hPa 0,0 l/m 5,1 km/h N -5,7 C -3,1 C 11,7 km/h
22.02.2013 13:00 -2,5 C 81 % 1010,3 hPa 0,0 l/m 6,4 km/h N -5,3 C -2,8 C 13,7 km/h
22.02.2013 14:00 -2,5 C 80 % 1009,8 hPa 0,0 l/m 5,6 km/h N -5,4 C -2,5 C 11,7 km/h
22.02.2013 15:00 -2,7 C 82 % 1009,6 hPa 0,3 l/m 5,8 km/h N -5,4 C -2,7 C 13,7 km/h
22.02.2013 16:00 -2,9 C 83 % 1009,5 hPa 0,0 l/m 5,9 km/h N -5,5 C -3,1 C 14,1 km/h
22.02.2013 17:00 -3,2 C 84 % 1009,5 hPa 0,0 l/m 4,6 km/h N -5,6 C -3,3 C 11,7 km/h
22.02.2013 18:00 -3,4 C 84 % 1009,9 hPa 0,0 l/m 2,4 km/h N -5,7 C -3,4 C 8,1 km/h
22.02.2013 19:00 -3,4 C 85 % 1009,8 hPa 0,0 l/m 3,2 km/h N -5,5 C -3,4 C 8,4 km/h
22.02.2013 20:00 -3,3 C 85 % 1009,7 hPa 0,0 l/m 3,0 km/h N -5,5 C -3,3 C 8,0 km/h
22.02.2013 21:00 -3,1 C 85 % 1009,7 hPa 0,0 l/m 2,7 km/h N -5,3 C -3,1 C 7,6 km/h
22.02.2013 22:00 -3,0 C 85 % 1009,3 hPa 0,0 l/m 1,6 km/h N -5,2 C -3,0 C 5,2 km/h
22.02.2013 23:00 -2,9 C 85 % 1009,0 hPa 0,0 l/m 1,0 km/h N -5,0 C -2,9 C 4,4 km/h
23.02.2013 00:00 -2,9 C 86 % 1008,5 hPa 0,0 l/m 1,0 km/h N -4,9 C -2,9 C 4,4 km/h
23.02.2013 01:00 -2,8 C 86 % 1008,3 hPa 0,0 l/m 0,7 km/h N -4,8 C -2,8 C 4,8 km/h
23.02.2013 02:00 -2,7 C 86 % 1007,6 hPa 0,0 l/m 2,0 km/h N -4,7 C -2,7 C 6,0 km/h
23.02.2013 03:00 -2,6 C 86 % 1007,1 hPa 0,0 l/m 2,5 km/h N -4,6 C -2,6 C 6,8 km/h
23.02.2013 04:00 -2,5 C 85 % 1006,6 hPa 0,0 l/m 0,6 km/h N -4,6 C -2,5 C 4,0 km/h
23.02.2013 05:00 -2,4 C 85 % 1006,0 hPa 0,0 l/m 0,2 km/h N -4,5 C -2,4 C 1,2 km/h
23.02.2013 06:00 -2,3 C 85 % 1005,5 hPa 0,0 l/m 0,0 km/h N -4,4 C -2,3 C 0,0 km/h
23.02.2013 07:00 -2,1 C 84 % 1005,3 hPa 0,0 l/m 0,0 km/h N -4,4 C -2,1 C 0,0 km/h
23.02.2013 08:00 -1,8 C 84 % 1005,3 hPa 0,0 l/m 0,0 km/h N -4,1 C -1,8 C 0,0 km/h
23.02.2013 09:00 -0,9 C 84 % 1005,2 hPa 0,0 l/m 0,0 km/h N -3,3 C -0,9 C 0,0 km/h
23.02.2013 10:00 -0,3 C 84 % 1005,4 hPa 0,0 l/m 0,0 km/h N -2,6 C -0,3 C 0,0 km/h
23.02.2013 11:00 1,2 C 84 % 1005,8 hPa 0,0 l/m 0,1 km/h N -1,2 C 1,2 C 0,8 km/h
23.02.2013 12:00 0,8 C 86 % 1005,9 hPa 0,0 l/m 1,9 km/h N -1,3 C 0,8 C 6,4 km/h
23.02.2013 13:00 0,6 C 85 % 1006,2 hPa 0,0 l/m 4,6 km/h N -1,6 C 0,6 C 11,3 km/h
23.02.2013 14:00 0,8 C 84 % 1007,5 hPa 0,0 l/m 3,0 km/h N -1,6 C 0,8 C 6,8 km/h
23.02.2013 15:00 0,5 C 83 % 1007,4 hPa 0,0 l/m 3,1 km/h N -2,1 C 0,5 C 10,5 km/h
23.02.2013 16:00 0,5 C 82 % 1008,1 hPa 0,0 l/m 1,1 km/h N -2,2 C 0,5 C 6,0 km/h
23.02.2013 17:00 -0,3 C 83 % 1008,6 hPa 0,0 l/m 3,3 km/h N -2,9 C -0,3 C 8,9 km/h
23.02.2013 18:00 -0,9 C 84 % 1009,4 hPa 0,3 l/m 1,0 km/h N -3,2 C -0,9 C 4,0 km/h
23.02.2013 19:00 -1,2 C 84 % 1010,2 hPa 0,0 l/m 0,0 km/h N -3,5 C -1,2 C 0,0 km/h
23.02.2013 20:00 -1,2 C 85 % 1010,2 hPa 0,0 l/m 0,1 km/h N -3,4 C -1,2 C 1,6 km/h
23.02.2013 21:00 -1,4 C 86 % 1010,1 hPa 0,0 l/m 0,0 km/h N -3,5 C -1,4 C 0,0 km/h
23.02.2013 22:00 -1,5 C 86 % 1009,5 hPa 0,0 l/m 0,6 km/h N -3,5 C -1,5 C 3,2 km/h
23.02.2013 23:00 -1,6 C 86 % 1009,5 hPa 0,0 l/m 0,4 km/h N -3,6 C -1,6 C 2,4 km/h
24.02.2013 00:00 -1,7 C 86 % 1008,5 hPa 0,0 l/m 1,8 km/h N -3,7 C -1,7 C 6,4 km/h
24.02.2013 01:00 -1,6 C 86 % 1007,6 hPa 0,0 l/m 2,1 km/h N -3,7 C -1,6 C 5,6 km/h
24.02.2013 02:00 -0,9 C 84 % 1006,8 hPa 0,0 l/m 1,2 km/h N -3,2 C -0,9 C 5,2 km/h
24.02.2013 03:00 -1,1 C 85 % 1006,4 hPa 0,0 l/m 1,5 km/h N -3,4 C -1,1 C 5,6 km/h
24.02.2013 04:00 -1,3 C 84 % 1006,7 hPa 0,0 l/m 1,0 km/h N -3,6 C -1,3 C 5,2 km/h
24.02.2013 05:00 -1,0 C 84 % 1007,0 hPa 0,0 l/m 0,9 km/h N -3,4 C -1,0 C 5,6 km/h
24.02.2013 06:00 -0,8 C 84 % 1007,6 hPa 0,0 l/m 0,6 km/h N -3,2 C -0,8 C 3,2 km/h
24.02.2013 07:00 -0,6 C 84 % 1008,7 hPa 0,0 l/m 0,8 km/h N -3,0 C -0,6 C 3,6 km/h
24.02.2013 08:00 -0,6 C 84 % 1009,6 hPa 0,0 l/m 2,8 km/h N -2,9 C -0,6 C 7,2 km/h
24.02.2013 09:00 -0,3 C 84 % 1010,4 hPa 0,0 l/m 2,1 km/h N -2,7 C -0,3 C 7,2 km/h
24.02.2013 10:00 0,3 C 84 % 1010,8 hPa 0,0 l/m 1,8 km/h N -2,1 C 0,3 C 7,6 km/h
24.02.2013 11:00 0,5 C 85 % 1011,1 hPa 0,0 l/m 1,8 km/h N -1,7 C 0,5 C 8,4 km/h
24.02.2013 12:00 0,9 C 85 % 1011,0 hPa 0,0 l/m 1,6 km/h N -1,3 C 0,9 C 8,1 km/h
24.02.2013 13:00 1,0 C 86 % 1010,9 hPa 0,3 l/m 1,1 km/h N -1,1 C 1,0 C 4,8 km/h
24.02.2013 14:00 0,9 C 86 % 1011,0 hPa 0,0 l/m 0,5 km/h N -1,2 C 0,9 C 3,6 km/h
24.02.2013 15:00 0,9 C 85 % 1011,1 hPa 0,0 l/m 0,0 km/h N -1,3 C 0,9 C 0,4 km/h
24.02.2013 16:00 0,9 C 85 % 1010,8 hPa 0,0 l/m 0,0 km/h N -1,3 C 0,9 C 0,4 km/h
24.02.2013 17:00 0,7 C 85 % 1011,2 hPa 0,0 l/m 0,0 km/h N -1,6 C 0,7 C 0,0 km/h
24.02.2013 18:00 0,6 C 84 % 1011,6 hPa 0,0 l/m 0,1 km/h N -1,8 C 0,6 C 0,8 km/h
24.02.2013 19:00 0,7 C 84 % 1012,3 hPa 0,0 l/m 0,2 km/h N -1,8 C 0,7 C 2,0 km/h
24.02.2013 20:00 0,7 C 83 % 1012,0 hPa 0,5 l/m 0,2 km/h N -1,8 C 0,7 C 2,0 km/h
24.02.2013 21:00 0,7 C 83 % 1011,8 hPa 0,0 l/m 0,0 km/h N -1,9 C 0,7 C 0,8 km/h
24.02.2013 22:00 1,1 C 82 % 1011,9 hPa 0,0 l/m 0,3 km/h N -1,6 C 1,1 C 1,6 km/h
24.02.2013 23:00 1,2 C 82 % 1012,0 hPa 1,6 l/m 0,2 km/h N -1,6 C 1,2 C 1,6 km/h
Min-Datum _ 22.02.13 19.02.13 23.02.13 - 18.02.13 - 22.02.13 22.02.13 18.02.13
_ Min-Zeit 06:15 10:15 07:45 - 00:00 - 02:15 06:15 00:00
Minimum _ -5,8 C 59 % 1005,1 hPa - 0,0 km/h - -8,7 C -5,8 C 0,0 km/h
Max-Datum _ 18.02.13 18.02.13 18.02.13 24.02.13 19.02.13 - 19.02.13 18.02.13 19.02.13
_ Max-Zeit 12:15 08:15 00:00 23:00 19:15 - 15:45 12:00 19:15
Maximum _ 4,2 C 86 % 1022,6 hPa 1,6 l/m 14,8 km/h
N
- -0,6 C 4,1 C 32,2 km/h
N
Durchschnitt _ -0,6 C 79 % 1014,3 hPa #5,2 l/m 2,8 km/h N -3,9 C -0,8 C 8,1 km/h